Terminal Aerodrome Forecast
Issued by NWS

Home | Current Version | Previous Version | Text Only | Print | Product List | Glossary On
Versions: 1 2 3 4 5 6 7 8 9 10 11 12 13 14 15 16 17 18 19
120
FTUS42 KMLB 082334
TAFFPR
TAF
KFPR 082334Z 0900/0924 35006KT P6SM SCT025 OVC110
      TEMPO 0900/0904 BKN025
     FM090900 35008KT P6SM VCSH SCT035 OVC080
     FM091500 36011KT P6SM VCSH SCT035 OVC100=

USA.gov is the U.S. government's official web portal to all federal, state and local government web resources and services.